createdAt,value
2022-10-16T00:00:43.974Z,22.10
2022-10-16T00:03:14.805Z,22.10
2022-10-16T00:05:46.938Z,22.10
2022-10-16T00:08:17.370Z,22.10
2022-10-16T00:10:47.344Z,22.10
2022-10-16T00:13:20.407Z,22.10
2022-10-16T00:15:50.772Z,22.10
2022-10-16T00:18:21.103Z,22.20
2022-10-16T00:20:51.907Z,22.20
2022-10-16T00:23:23.646Z,22.20
2022-10-16T00:26:02.503Z,22.20
2022-10-16T00:28:33.710Z,22.20
2022-10-16T00:31:09.124Z,22.30
2022-10-16T00:33:41.688Z,22.30
2022-10-16T00:36:16.282Z,22.30
2022-10-16T00:38:47.433Z,22.30
2022-10-16T00:41:20.213Z,22.40
2022-10-16T00:44:02.683Z,22.40
2022-10-16T00:46:43.036Z,22.50
2022-10-16T00:49:19.438Z,22.50
2022-10-16T00:51:52.915Z,22.50
2022-10-16T00:54:27.322Z,22.50
2022-10-16T00:56:59.784Z,22.50
2022-10-16T00:59:38.524Z,22.60
2022-10-16T01:02:14.957Z,22.60
2022-10-16T01:04:51.207Z,22.60
2022-10-16T01:08:00.666Z,22.70
2022-10-16T01:11:02.774Z,22.80
2022-10-16T01:13:43.933Z,23.10
2022-10-16T01:16:41.853Z,23.20
2022-10-16T01:19:19.141Z,23.20
2022-10-16T01:21:52.554Z,23.20
2022-10-16T01:24:43.428Z,23.20
2022-10-16T01:27:35.714Z,23.20
2022-10-16T01:30:33.167Z,23.20
2022-10-16T01:33:15.496Z,23.20
2022-10-16T01:35:51.592Z,23.20
2022-10-16T01:38:41.534Z,23.20
2022-10-16T01:41:29.892Z,23.20
2022-10-16T01:44:14.705Z,23.30
2022-10-16T01:46:48.702Z,23.40
2022-10-16T01:49:20.620Z,23.50
2022-10-16T01:51:55.694Z,23.40
2022-10-16T01:54:28.763Z,23.50
2022-10-16T01:57:01.358Z,23.60
2022-10-16T01:59:35.415Z,23.60
2022-10-16T02:02:11.050Z,23.60
2022-10-16T02:04:47.149Z,23.50
2022-10-16T02:07:17.855Z,23.50
2022-10-16T02:09:49.637Z,23.60
2022-10-16T02:12:34.941Z,23.60
2022-10-16T02:15:05.475Z,23.70
2022-10-16T02:17:35.849Z,23.60
2022-10-16T02:20:07.822Z,23.70
2022-10-16T02:22:42.388Z,23.70
2022-10-16T02:25:38.769Z,23.70
2022-10-16T02:28:37.118Z,23.70
2022-10-16T02:31:11.880Z,23.80
2022-10-16T02:33:44.890Z,23.90
2022-10-16T02:36:16.262Z,23.80
2022-10-16T02:38:46.626Z,23.80
2022-10-16T02:41:18.280Z,23.80
2022-10-16T02:43:49.039Z,23.90
2022-10-16T02:46:21.418Z,24.00
2022-10-16T02:48:51.582Z,24.00
2022-10-16T02:51:21.982Z,24.00
2022-10-16T02:53:52.433Z,24.10
2022-10-16T02:56:22.592Z,24.20
2022-10-16T02:58:53.038Z,24.30
2022-10-16T03:01:24.223Z,24.40
2022-10-16T03:03:54.604Z,24.30
2022-10-16T03:06:25.058Z,24.20
2022-10-16T03:08:55.451Z,24.30
2022-10-16T03:11:25.995Z,24.30
2022-10-16T03:13:56.834Z,24.40
2022-10-16T03:16:26.920Z,24.50
2022-10-16T03:18:57.316Z,24.60
2022-10-16T03:21:27.670Z,24.80
2022-10-16T03:23:57.899Z,24.80
2022-10-16T03:26:27.954Z,24.80
2022-10-16T03:28:58.667Z,24.90
2022-10-16T03:31:29.944Z,25.00
2022-10-16T03:34:00.417Z,25.10
2022-10-16T03:36:32.268Z,25.30
2022-10-16T03:39:03.065Z,25.30
2022-10-16T03:41:33.515Z,25.30
2022-10-16T03:44:03.883Z,25.20
2022-10-16T03:46:34.339Z,25.40
2022-10-16T03:49:06.166Z,25.60
2022-10-16T03:51:40.076Z,25.60
2022-10-16T03:54:10.836Z,25.60
2022-10-16T03:56:41.280Z,25.60
2022-10-16T03:59:12.032Z,25.60
2022-10-16T04:01:43.307Z,25.70
2022-10-16T04:04:13.782Z,25.80
2022-10-16T04:06:43.808Z,25.70
2022-10-16T04:09:13.716Z,25.70
2022-10-16T04:11:44.117Z,25.80
2022-10-16T04:14:14.747Z,25.80
2022-10-16T04:16:45.558Z,25.90
2022-10-16T04:19:16.375Z,26.00
2022-10-16T04:21:47.026Z,25.90
2022-10-16T04:24:17.429Z,26.00
2022-10-16T04:26:48.097Z,25.90
2022-10-16T04:29:18.647Z,25.90
2022-10-16T04:31:49.623Z,25.90
2022-10-16T04:34:19.992Z,25.80
2022-10-16T04:36:53.553Z,25.90
2022-10-16T04:39:24.073Z,25.90
2022-10-16T04:41:54.195Z,25.90
2022-10-16T04:44:25.324Z,25.90
2022-10-16T04:46:56.433Z,25.90
2022-10-16T04:49:26.944Z,26.00
2022-10-16T04:51:57.424Z,25.90
2022-10-16T04:54:27.974Z,26.00
2022-10-16T04:56:58.546Z,26.30
2022-10-16T04:59:29.613Z,26.40
2022-10-16T05:01:59.892Z,26.50
2022-10-16T05:04:30.739Z,26.50
2022-10-16T05:07:00.830Z,26.60
2022-10-16T05:09:31.755Z,26.80
2022-10-16T05:12:02.322Z,26.90
2022-10-16T05:14:33.720Z,27.00
2022-10-16T05:17:04.375Z,27.00
2022-10-16T05:19:35.288Z,27.00
2022-10-16T05:22:05.797Z,27.10
2022-10-16T05:24:35.998Z,27.10
2022-10-16T05:27:06.161Z,27.10
2022-10-16T05:29:36.598Z,27.10
2022-10-16T05:32:07.469Z,27.00
2022-10-16T05:34:37.716Z,27.00
2022-10-16T05:37:07.968Z,26.90
2022-10-16T05:39:39.433Z,26.90
2022-10-16T05:42:09.629Z,26.90
2022-10-16T05:44:39.867Z,26.90
2022-10-16T05:47:11.628Z,26.80
2022-10-16T05:49:43.159Z,26.90
2022-10-16T05:52:13.943Z,26.90
2022-10-16T05:54:44.116Z,27.00
2022-10-16T05:57:14.558Z,26.90
2022-10-16T05:59:45.535Z,26.90
2022-10-16T06:02:19.328Z,26.90
2022-10-16T06:04:50.251Z,26.80
2022-10-16T06:07:20.637Z,26.80
2022-10-16T06:09:55.339Z,26.70
2022-10-16T06:12:25.478Z,26.90
2022-10-16T06:14:56.541Z,26.90
2022-10-16T06:17:27.824Z,26.90
2022-10-16T06:19:59.041Z,27.00
2022-10-16T06:22:29.523Z,27.00
2022-10-16T06:24:59.602Z,26.90
2022-10-16T06:27:30.069Z,26.90
2022-10-16T06:30:00.188Z,26.80
2022-10-16T06:32:31.558Z,26.80
2022-10-16T06:35:02.279Z,26.80
2022-10-16T06:37:33.142Z,26.90
2022-10-16T06:40:03.296Z,27.00
2022-10-16T06:42:33.587Z,27.10
2022-10-16T06:45:04.201Z,27.10
2022-10-16T06:47:34.610Z,27.10
2022-10-16T06:50:06.285Z,27.00
2022-10-16T06:52:37.902Z,27.10
2022-10-16T06:55:08.718Z,27.10
2022-10-16T06:57:38.886Z,27.10
2022-10-16T07:00:09.818Z,27.20
2022-10-16T07:02:40.264Z,27.20
2022-10-16T07:05:17.166Z,27.40
2022-10-16T07:07:53.741Z,27.40
2022-10-16T07:10:26.687Z,27.30
2022-10-16T07:12:57.461Z,27.30
2022-10-16T07:15:30.545Z,27.10
2022-10-16T07:18:00.880Z,27.30
2022-10-16T07:20:31.706Z,27.30
2022-10-16T07:23:02.039Z,27.40
2022-10-16T07:25:32.650Z,27.70
2022-10-16T07:28:03.189Z,27.70
2022-10-16T07:30:34.128Z,27.50
2022-10-16T07:33:04.229Z,27.60
2022-10-16T07:35:34.293Z,27.40
2022-10-16T07:38:04.708Z,27.30
2022-10-16T07:40:35.818Z,27.40
2022-10-16T07:43:08.027Z,27.30
2022-10-16T07:45:39.045Z,27.30
2022-10-16T07:48:09.828Z,27.20
2022-10-16T07:50:40.626Z,27.20
2022-10-16T07:53:12.254Z,27.20
2022-10-16T07:55:43.300Z,27.20
2022-10-16T07:58:14.219Z,27.40
2022-10-16T08:00:44.641Z,27.40
2022-10-16T08:03:15.127Z,27.50
2022-10-16T08:05:45.908Z,27.40
2022-10-16T08:08:17.805Z,27.50
2022-10-16T08:10:48.969Z,27.60
2022-10-16T08:13:19.716Z,27.40
2022-10-16T08:15:50.818Z,27.50
2022-10-16T08:18:21.084Z,27.40
2022-10-16T08:20:51.607Z,27.40
2022-10-16T08:23:22.539Z,27.30
2022-10-16T08:25:53.420Z,27.30
2022-10-16T08:28:25.162Z,27.10
2022-10-16T08:30:55.499Z,27.30
2022-10-16T08:33:26.080Z,27.20
2022-10-16T08:35:56.767Z,27.30
2022-10-16T08:38:33.003Z,27.10
2022-10-16T08:41:34.241Z,27.20
2022-10-16T08:44:36.003Z,27.20
2022-10-16T08:47:36.615Z,27.20
2022-10-16T08:50:15.034Z,27.20
2022-10-16T08:52:47.851Z,27.40
2022-10-16T08:55:53.421Z,27.20
2022-10-16T08:58:29.132Z,27.20
2022-10-16T09:01:04.381Z,27.30
2022-10-16T09:04:13.645Z,27.20
2022-10-16T09:06:58.650Z,27.10
2022-10-16T09:10:07.756Z,27.20
2022-10-16T09:13:03.923Z,27.20
2022-10-16T09:16:08.181Z,27.10
2022-10-16T09:19:04.356Z,27.10
2022-10-16T09:21:39.170Z,27.00
2022-10-16T09:24:19.130Z,26.90
2022-10-16T09:26:50.498Z,26.90
2022-10-16T09:29:23.153Z,26.90
2022-10-16T09:31:54.962Z,26.80
2022-10-16T09:34:35.274Z,26.80
2022-10-16T09:37:11.655Z,26.80
2022-10-16T09:39:53.891Z,26.70
2022-10-16T09:42:30.956Z,26.70
2022-10-16T09:45:01.827Z,26.70
2022-10-16T09:47:34.052Z,26.70
2022-10-16T09:50:25.119Z,26.70
2022-10-16T09:53:08.757Z,26.60
2022-10-16T09:55:40.622Z,26.50
2022-10-16T09:58:16.881Z,26.50
2022-10-16T10:00:56.901Z,26.50
2022-10-16T10:03:48.035Z,26.50
2022-10-16T10:06:42.496Z,26.50
2022-10-16T10:09:41.747Z,26.50
2022-10-16T10:12:34.983Z,26.50
2022-10-16T10:15:14.193Z,26.40
2022-10-16T10:18:05.787Z,26.40
2022-10-16T10:20:41.262Z,26.40
2022-10-16T10:23:32.519Z,26.30
2022-10-16T10:26:26.614Z,26.30
2022-10-16T10:29:27.895Z,26.20
2022-10-16T10:32:30.822Z,26.20
2022-10-16T10:35:30.744Z,26.20
2022-10-16T10:38:41.744Z,26.30
2022-10-16T10:41:40.473Z,26.20
2022-10-16T10:44:49.964Z,26.10
2022-10-16T10:47:49.373Z,26.20
2022-10-16T10:50:52.027Z,26.10
2022-10-16T10:53:36.718Z,26.00
2022-10-16T10:56:47.328Z,26.10
2022-10-16T10:59:53.219Z,26.10
2022-10-16T11:03:02.653Z,25.90
2022-10-16T11:05:47.321Z,25.90
2022-10-16T11:08:40.794Z,26.00
2022-10-16T11:11:37.703Z,26.00
2022-10-16T11:14:34.992Z,25.90
2022-10-16T11:17:33.070Z,25.90
2022-10-16T11:20:42.462Z,25.90
2022-10-16T11:23:30.130Z,25.90
2022-10-16T11:26:04.948Z,25.90
2022-10-16T11:28:49.379Z,25.90
2022-10-16T11:31:54.479Z,25.80
2022-10-16T11:34:37.992Z,25.80
2022-10-16T11:37:30.526Z,25.70
2022-10-16T11:40:23.186Z,25.60
2022-10-16T11:43:04.491Z,25.70
2022-10-16T11:45:45.897Z,25.60
2022-10-16T11:48:43.413Z,25.60
2022-10-16T11:51:52.899Z,25.60
2022-10-16T11:54:46.909Z,25.50
2022-10-16T11:57:33.849Z,25.50
2022-10-16T12:00:23.562Z,25.60
2022-10-16T12:03:32.823Z,25.60
2022-10-16T12:06:34.420Z,25.60
2022-10-16T12:09:05.916Z,25.60
2022-10-16T12:11:43.101Z,25.70
2022-10-16T12:14:57.435Z,25.70
2022-10-16T12:17:42.718Z,25.60
2022-10-16T12:20:28.917Z,25.50
2022-10-16T12:23:04.921Z,25.50
2022-10-16T12:25:49.064Z,25.50
2022-10-16T12:28:25.422Z,25.60
2022-10-16T12:31:07.705Z,25.70
2022-10-16T12:33:41.307Z,25.70
2022-10-16T12:36:21.956Z,25.60
2022-10-16T12:38:56.404Z,25.50
2022-10-16T12:41:35.781Z,25.50
2022-10-16T12:44:06.804Z,25.60
2022-10-16T12:46:44.938Z,25.50
2022-10-16T12:49:40.501Z,25.50
2022-10-16T12:52:47.439Z,25.50
2022-10-16T12:55:23.006Z,25.50
2022-10-16T12:58:33.290Z,25.50
2022-10-16T13:01:42.468Z,25.50
2022-10-16T13:04:39.698Z,25.40
2022-10-16T13:07:43.191Z,25.50
2022-10-16T13:10:43.531Z,25.50
2022-10-16T13:13:40.970Z,25.40
2022-10-16T13:16:37.901Z,25.40
2022-10-16T13:19:39.539Z,25.00
2022-10-16T13:22:52.682Z,24.80
2022-10-16T13:25:52.465Z,24.60
2022-10-16T13:28:31.107Z,24.50
2022-10-16T13:31:04.170Z,24.40
2022-10-16T13:33:42.025Z,24.50
2022-10-16T13:36:27.521Z,24.50
2022-10-16T13:39:20.338Z,24.40
2022-10-16T13:42:10.770Z,24.40
2022-10-16T13:44:52.731Z,24.50
2022-10-16T13:47:29.583Z,24.80
2022-10-16T13:50:16.158Z,24.90
2022-10-16T13:52:47.319Z,25.00
2022-10-16T13:55:20.625Z,25.00
2022-10-16T13:57:51.996Z,25.00
2022-10-16T14:00:26.680Z,25.10
2022-10-16T14:03:04.459Z,25.00
2022-10-16T14:05:35.894Z,25.10
2022-10-16T14:08:06.515Z,25.10
2022-10-16T14:10:37.643Z,25.10
2022-10-16T14:13:10.273Z,25.00
2022-10-16T14:15:40.938Z,24.80
2022-10-16T14:18:23.262Z,24.90
2022-10-16T14:20:55.696Z,24.90
2022-10-16T14:23:43.335Z,24.80
2022-10-16T14:26:20.402Z,24.90
2022-10-16T14:28:52.901Z,24.90
2022-10-16T14:31:39.941Z,24.70
2022-10-16T14:34:33.025Z,24.60
2022-10-16T14:37:37.714Z,24.70
2022-10-16T14:40:09.242Z,24.50
2022-10-16T14:42:40.164Z,24.60
2022-10-16T14:45:14.335Z,24.70
2022-10-16T14:47:54.919Z,24.70
2022-10-16T14:50:25.956Z,24.70
2022-10-16T14:52:56.396Z,24.60
2022-10-16T14:55:27.598Z,24.60
2022-10-16T14:58:00.576Z,24.50
2022-10-16T15:00:31.493Z,24.50
2022-10-16T15:03:02.252Z,24.50
2022-10-16T15:05:34.659Z,24.50
2022-10-16T15:08:07.257Z,24.50
2022-10-16T15:10:43.140Z,24.50
2022-10-16T15:13:17.732Z,24.60
2022-10-16T15:15:51.676Z,24.60
2022-10-16T15:18:23.148Z,24.60
2022-10-16T15:20:54.835Z,24.50
2022-10-16T15:26:01.970Z,24.50
2022-10-16T15:28:32.475Z,24.60
2022-10-16T15:31:02.544Z,24.60
2022-10-16T15:33:39.632Z,24.60
2022-10-16T15:36:11.072Z,24.60
2022-10-16T15:38:41.423Z,24.60
2022-10-16T15:41:13.354Z,24.60
2022-10-16T15:43:45.522Z,24.60
2022-10-16T15:46:20.859Z,24.70
2022-10-16T15:48:53.156Z,24.60
2022-10-16T15:51:24.122Z,24.60
2022-10-16T15:53:55.586Z,24.60
2022-10-16T15:56:27.962Z,24.60
2022-10-16T15:59:00.806Z,24.50
2022-10-16T16:01:32.358Z,24.50
2022-10-16T16:04:11.186Z,24.50
2022-10-16T16:06:51.133Z,24.50
2022-10-16T16:09:21.621Z,24.50
2022-10-16T16:11:54.927Z,24.40
2022-10-16T16:14:26.933Z,24.40
2022-10-16T16:16:58.171Z,24.40
2022-10-16T16:19:28.529Z,24.40
2022-10-16T16:21:59.370Z,24.40
2022-10-16T16:24:29.909Z,24.40
2022-10-16T16:27:00.292Z,24.30
2022-10-16T16:29:30.619Z,24.40
2022-10-16T16:32:01.824Z,24.40
2022-10-16T16:34:32.714Z,24.50
2022-10-16T16:37:03.636Z,24.40
2022-10-16T16:39:33.701Z,24.40
2022-10-16T16:42:06.559Z,24.50
2022-10-16T16:44:38.693Z,24.40
2022-10-16T16:47:08.898Z,24.30
2022-10-16T16:49:39.056Z,24.30
2022-10-16T16:52:09.578Z,24.40
2022-10-16T16:54:39.811Z,24.40
2022-10-16T16:57:11.779Z,24.40
2022-10-16T16:59:42.877Z,24.50
2022-10-16T17:02:13.381Z,24.40
2022-10-16T17:04:44.979Z,24.40
2022-10-16T17:07:15.444Z,24.40
2022-10-16T17:09:45.817Z,24.30
2022-10-16T17:12:16.268Z,24.30
2022-10-16T17:14:46.856Z,24.40
2022-10-16T17:17:17.459Z,24.40
2022-10-16T17:19:47.916Z,24.40
2022-10-16T17:22:17.859Z,24.30
2022-10-16T17:24:52.200Z,24.20
2022-10-16T17:27:22.966Z,24.10
2022-10-16T17:29:54.296Z,24.30
2022-10-16T17:32:25.481Z,24.30
2022-10-16T17:34:55.566Z,24.30
2022-10-16T17:37:27.826Z,24.30
2022-10-16T17:39:59.547Z,24.20
2022-10-16T17:42:30.762Z,24.10
2022-10-16T17:45:01.221Z,24.10
2022-10-16T17:47:32.100Z,24.00
2022-10-16T17:50:02.670Z,24.00
2022-10-16T17:52:33.072Z,24.00
2022-10-16T17:55:03.747Z,24.00
2022-10-16T17:57:35.066Z,23.90
2022-10-16T18:00:06.493Z,23.90
2022-10-16T18:02:36.771Z,23.90
2022-10-16T18:05:07.768Z,23.90
2022-10-16T18:10:12.124Z,23.80
2022-10-16T18:12:43.267Z,23.70
2022-10-16T18:15:15.048Z,23.70
2022-10-16T18:17:46.386Z,23.70
2022-10-16T18:20:16.604Z,23.70
2022-10-16T18:22:47.361Z,23.60
2022-10-16T18:25:18.034Z,23.60
2022-10-16T18:27:48.482Z,23.70
2022-10-16T18:30:19.278Z,23.70
2022-10-16T18:32:50.057Z,23.80
2022-10-16T18:35:20.596Z,23.60
2022-10-16T18:37:51.128Z,23.60
2022-10-16T18:40:22.250Z,23.50
2022-10-16T18:42:54.798Z,23.60
2022-10-16T18:45:26.244Z,23.50
2022-10-16T18:47:56.666Z,23.50
2022-10-16T18:50:26.858Z,23.30
2022-10-16T18:52:57.160Z,23.50
2022-10-16T18:55:30.666Z,23.50
2022-10-16T18:58:01.558Z,23.30
2022-10-16T19:00:34.884Z,23.50
2022-10-16T19:03:08.159Z,23.40
2022-10-16T19:05:38.778Z,23.30
2022-10-16T19:08:09.670Z,23.20
2022-10-16T19:10:41.252Z,23.20
2022-10-16T19:13:12.124Z,23.20
2022-10-16T19:15:57.949Z,23.10
2022-10-16T19:18:30.637Z,23.10
2022-10-16T19:21:04.345Z,23.20
2022-10-16T19:23:35.494Z,23.10
2022-10-16T19:26:12.327Z,23.20
2022-10-16T19:28:44.046Z,23.00
2022-10-16T19:31:17.459Z,23.10
2022-10-16T19:33:48.376Z,22.90
2022-10-16T19:36:21.589Z,23.00
2022-10-16T19:38:57.126Z,23.10
2022-10-16T19:41:30.560Z,22.90
2022-10-16T19:44:07.567Z,22.80
2022-10-16T19:46:38.745Z,23.00
2022-10-16T19:49:12.304Z,23.10
2022-10-16T19:51:42.764Z,23.00
2022-10-16T19:54:16.941Z,22.90
2022-10-16T19:56:46.973Z,22.80
2022-10-16T19:59:20.541Z,23.00
2022-10-16T20:01:54.097Z,22.90
2022-10-16T20:04:24.900Z,23.00
2022-10-16T20:09:30.726Z,22.80
2022-10-16T20:12:01.404Z,22.90
2022-10-16T20:14:32.131Z,23.00
2022-10-16T20:17:03.812Z,23.10
2022-10-16T20:19:34.155Z,23.20
2022-10-16T20:22:05.279Z,23.10
2022-10-16T20:24:36.172Z,23.00
2022-10-16T20:27:06.977Z,23.10
2022-10-16T20:29:37.226Z,23.00
2022-10-16T20:32:07.940Z,23.00
2022-10-16T20:37:14.608Z,22.70
2022-10-16T20:39:46.108Z,22.90
2022-10-16T20:42:16.367Z,23.00
2022-10-16T20:44:49.196Z,23.00
2022-10-16T20:47:21.685Z,22.90
2022-10-16T20:49:52.207Z,22.90
2022-10-16T20:52:22.563Z,22.80
2022-10-16T20:54:53.069Z,23.00
2022-10-16T20:57:23.488Z,22.90
2022-10-16T20:59:57.106Z,22.80
2022-10-16T21:02:27.275Z,22.70
2022-10-16T21:04:57.371Z,22.70
2022-10-16T21:07:28.884Z,22.80
2022-10-16T21:10:00.380Z,22.90
2022-10-16T21:12:31.038Z,22.90
2022-10-16T21:15:15.787Z,22.70
2022-10-16T21:17:46.302Z,22.60
2022-10-16T21:20:16.702Z,22.60
2022-10-16T21:22:47.035Z,22.40
2022-10-16T21:25:17.469Z,22.50
2022-10-16T21:27:48.881Z,22.60
2022-10-16T21:30:19.218Z,22.80
2022-10-16T21:32:49.702Z,22.80
2022-10-16T21:35:20.449Z,22.70
2022-10-16T21:37:53.699Z,22.70
2022-10-16T21:40:24.436Z,22.50
2022-10-16T21:42:55.260Z,22.20
2022-10-16T21:45:25.357Z,22.10
2022-10-16T21:50:31.045Z,22.00
2022-10-16T21:53:01.790Z,22.10
2022-10-16T21:55:32.887Z,22.20
2022-10-16T21:58:03.279Z,22.30
2022-10-16T22:00:33.082Z,22.30
2022-10-16T22:03:03.499Z,22.40
2022-10-16T22:05:36.211Z,22.30
2022-10-16T22:08:06.687Z,22.30
2022-10-16T22:10:37.409Z,22.20
2022-10-16T22:13:07.392Z,22.10
2022-10-16T22:15:37.922Z,22.00
2022-10-16T22:18:08.637Z,22.00
2022-10-16T22:20:39.719Z,22.10
2022-10-16T22:23:10.352Z,22.00
2022-10-16T22:25:40.894Z,21.80
2022-10-16T22:28:11.578Z,21.80
2022-10-16T22:30:42.875Z,21.80
2022-10-16T22:33:13.859Z,21.80
2022-10-16T22:35:44.677Z,21.90
2022-10-16T22:38:15.210Z,21.90
2022-10-16T22:40:45.999Z,21.90
2022-10-16T22:43:16.794Z,22.00
2022-10-16T22:45:47.168Z,21.90
2022-10-16T22:48:17.820Z,21.90
2022-10-16T22:50:50.096Z,21.80
2022-10-16T22:53:20.095Z,21.70
2022-10-16T22:55:50.123Z,21.60
2022-10-16T22:58:20.439Z,21.50
2022-10-16T23:00:51.387Z,21.50
2022-10-16T23:03:22.285Z,21.60
2022-10-16T23:05:53.904Z,21.80
2022-10-16T23:08:23.937Z,21.90
2022-10-16T23:10:54.269Z,21.90
2022-10-16T23:13:24.639Z,21.90
2022-10-16T23:15:54.902Z,21.90
2022-10-16T23:18:25.228Z,21.80
2022-10-16T23:20:55.531Z,21.70
2022-10-16T23:23:25.873Z,21.60
2022-10-16T23:25:56.483Z,21.60
2022-10-16T23:28:26.579Z,21.60
2022-10-16T23:30:56.572Z,21.70
2022-10-16T23:33:26.676Z,21.80
2022-10-16T23:35:56.964Z,21.80
2022-10-16T23:38:27.346Z,21.80
2022-10-16T23:40:57.437Z,22.00
2022-10-16T23:43:28.745Z,21.90
2022-10-16T23:45:58.817Z,22.10
2022-10-16T23:48:29.210Z,21.90
2022-10-16T23:50:59.339Z,22.10
2022-10-16T23:53:30.053Z,22.10
2022-10-16T23:56:01.201Z,22.30
2022-10-16T23:58:32.285Z,22.20
